createdAt,value
2024-01-09T00:01:48.665Z,2.17
2024-01-09T00:17:13.716Z,2.17
2024-01-09T00:32:38.688Z,2.17
2024-01-09T00:48:03.893Z,2.17
2024-01-09T01:03:28.581Z,2.17
2024-01-09T01:18:53.566Z,2.17
2024-01-09T01:34:18.641Z,1.58
2024-01-09T01:49:44.621Z,1.58
2024-01-09T02:05:09.667Z,0.12
2024-01-09T02:20:34.566Z,0.12
2024-01-09T02:35:59.589Z,-0.72
2024-01-09T02:51:24.567Z,-0.10
2024-01-09T03:06:49.707Z,-0.94
2024-01-09T03:22:14.538Z,-0.94
2024-01-09T03:37:39.456Z,-0.36
2024-01-09T03:53:04.486Z,-0.36
2024-01-09T04:08:29.591Z,-0.94
2024-01-09T04:23:54.467Z,-2.39
2024-01-09T04:39:19.458Z,-2.39
2024-01-09T04:54:44.464Z,-1.79
2024-01-09T05:10:09.512Z,-1.21
2024-01-09T05:25:34.407Z,-1.21
2024-01-09T05:40:59.393Z,-1.21
2024-01-09T05:56:24.487Z,-1.21
2024-01-09T06:11:49.406Z,-1.21
2024-01-09T06:27:14.417Z,-1.21
2024-01-09T06:42:39.369Z,-1.21
2024-01-09T06:58:04.379Z,-1.21
2024-01-09T07:13:29.402Z,-1.21
2024-01-09T07:28:54.330Z,-1.21
2024-01-09T07:44:19.394Z,-2.05
2024-01-09T07:59:44.356Z,-2.05
2024-01-09T08:15:09.362Z,-2.05
2024-01-09T08:30:34.342Z,-2.05
2024-01-09T08:45:59.363Z,-2.05
2024-01-09T09:01:24.501Z,-2.63
2024-01-09T09:16:49.246Z,-2.63
2024-01-09T09:32:14.363Z,-2.05
2024-01-09T09:47:39.312Z,-2.05
2024-01-09T10:03:04.276Z,-2.63
2024-01-09T10:18:29.507Z,-1.79
2024-01-09T10:33:54.302Z,-2.39
2024-01-09T10:49:22.700Z,-2.18
2024-01-09T11:04:45.259Z,-3.44
2024-01-09T11:20:11.194Z,-3.44
2024-01-09T11:35:36.197Z,-2.84
2024-01-09T11:51:01.266Z,-2.18
2024-01-09T12:06:27.404Z,-1.55
2024-01-09T12:21:52.217Z,-0.10
2024-01-09T12:37:18.190Z,-0.10
2024-01-09T12:52:43.176Z,-0.10
2024-01-09T13:08:09.095Z,0.48
2024-01-09T13:39:01.107Z,1.90
2024-01-09T13:54:27.377Z,2.45
2024-01-09T14:09:52.164Z,2.45
2024-01-09T14:25:17.128Z,2.45
2024-01-09T14:40:42.099Z,3.30
2024-01-09T14:56:07.165Z,3.84
2024-01-09T15:11:32.134Z,3.84
2024-01-09T15:26:57.093Z,3.84
2024-01-09T15:42:23.057Z,3.30
2024-01-09T15:57:48.018Z,3.30
2024-01-09T16:13:13.010Z,3.30
2024-01-09T16:28:38.348Z,2.75
2024-01-09T16:44:03.066Z,2.75
2024-01-09T16:59:28.061Z,2.17
2024-01-09T17:14:52.996Z,2.17
2024-01-09T17:30:17.961Z,2.17
2024-01-09T17:45:43.015Z,2.41
2024-01-09T18:01:07.997Z,2.41
2024-01-09T18:16:33.973Z,1.79
2024-01-09T18:31:59.116Z,1.79
2024-01-09T18:47:24.110Z,2.41
2024-01-09T19:02:48.990Z,1.79
2024-01-09T19:18:13.997Z,1.79
2024-01-09T19:33:39.065Z,0.96
2024-01-09T19:49:04.039Z,1.79
2024-01-09T20:04:28.996Z,0.31
2024-01-09T20:19:54.292Z,0.31
2024-01-09T20:35:18.918Z,0.96
2024-01-09T20:50:43.957Z,1.79
2024-01-09T21:06:08.955Z,1.79
2024-01-09T21:21:33.944Z,0.31
2024-01-09T21:36:58.881Z,0.31
2024-01-09T21:52:23.911Z,0.96
2024-01-09T22:07:48.932Z,0.96
2024-01-09T22:23:13.930Z,0.74
2024-01-09T22:38:38.825Z,1.33
2024-01-09T22:54:03.776Z,2.17
2024-01-09T23:09:29.975Z,2.17
2024-01-09T23:24:54.823Z,1.58
2024-01-09T23:40:19.772Z,1.58
2024-01-09T23:55:44.917Z,0.96
